LFBY/XDA METAR and TAF weather

Enter ICAO airport designator
Station Type Date Time Source
LFBY METAR 2019/04/19 10:00 UTC NOAA

LFBY 191000Z 07003KT 030V140 9999 SCT013 BKN210 18/13 Q1020


Station Type Date Time Source
LFBY Decoded METAR 2019/04/19 10:00 UTC NOAA

Dax, France (LFBY) 43-41N 001-04W 32M
Apr 19, 2019 - 06:00 AM EDT / 2019.04.19 1000 UTC
Wind: from the ENE (070 degrees) at 3 MPH (3 KT) (direction variable):0
Visibility: greater than 7 mile(s):0
Sky conditions: mostly cloudy
Temperature: 64 F (18 C)
Dew Point: 55 F (13 C)
Relative Humidity: 72%
Pressure (altimeter): 30.12 in. Hg (1020 hPa)
ob: LFBY 191000Z 07003KT 030V140 9999 SCT013 BKN210 18/13 Q1020
cycle: 10

Station Type Date Time Source
LFBY TAF UTC NOAA

Error!

Example: see airport list